sensor_id;sensor_type;location;lat;lon;timestamp;pressure;altitude;pressure_sealevel;temperature;humidity
8294;BME280;4185;41.506;24.938;2023-02-21T00:00:07;93899.34;;;2.43;63.92
8294;BME280;4185;41.506;24.938;2023-02-21T00:02:51;93899.25;;;2.46;64.16
8294;BME280;4185;41.506;24.938;2023-02-21T00:05:35;93905.25;;;2.50;63.72
8294;BME280;4185;41.506;24.938;2023-02-21T00:08:20;93899.59;;;2.48;64.12
8294;BME280;4185;41.506;24.938;2023-02-21T00:11:05;93893.91;;;2.46;63.97
8294;BME280;4185;41.506;24.938;2023-02-21T00:13:49;93901.94;;;2.46;64.06
8294;BME280;4185;41.506;24.938;2023-02-21T00:16:32;93893.81;;;2.50;64.25
8294;BME280;4185;41.506;24.938;2023-02-21T00:19:16;93895.19;;;2.55;64.03
8294;BME280;4185;41.506;24.938;2023-02-21T00:22:00;93889.31;;;2.60;63.55
8294;BME280;4185;41.506;24.938;2023-02-21T00:24:45;93894.25;;;2.61;63.72
8294;BME280;4185;41.506;24.938;2023-02-21T00:27:30;93886.28;;;2.45;64.27
8294;BME280;4185;41.506;24.938;2023-02-21T00:30:14;93881.84;;;2.38;64.90
8294;BME280;4185;41.506;24.938;2023-02-21T00:32:58;93879.03;;;2.29;64.58
8294;BME280;4185;41.506;24.938;2023-02-21T00:35:43;93873.53;;;2.20;65.06
8294;BME280;4185;41.506;24.938;2023-02-21T00:38:26;93867.19;;;2.14;65.07
8294;BME280;4185;41.506;24.938;2023-02-21T00:41:12;93868.34;;;2.13;64.97
8294;BME280;4185;41.506;24.938;2023-02-21T00:43:56;93861.16;;;2.10;65.49
8294;BME280;4185;41.506;24.938;2023-02-21T00:46:40;93858.66;;;2.03;65.30
8294;BME280;4185;41.506;24.938;2023-02-21T00:49:24;93864.44;;;2.02;65.84
8294;BME280;4185;41.506;24.938;2023-02-21T00:52:09;93863.78;;;1.98;66.27
8294;BME280;4185;41.506;24.938;2023-02-21T00:54:53;93855.34;;;1.99;66.21
8294;BME280;4185;41.506;24.938;2023-02-21T00:57:39;93858.22;;;2.05;66.18
8294;BME280;4185;41.506;24.938;2023-02-21T01:00:23;93860.81;;;2.08;65.56
8294;BME280;4185;41.506;24.938;2023-02-21T01:03:08;93849.03;;;2.06;64.78
8294;BME280;4185;41.506;24.938;2023-02-21T01:05:53;93846.09;;;2.00;65.69
8294;BME280;4185;41.506;24.938;2023-02-21T01:08:40;93850.91;;;1.93;66.03
8294;BME280;4185;41.506;24.938;2023-02-21T01:11:24;93838.47;;;1.70;66.81
8294;BME280;4185;41.506;24.938;2023-02-21T01:14:10;93845.22;;;1.75;66.53
8294;BME280;4185;41.506;24.938;2023-02-21T01:16:54;93841.78;;;1.74;66.67
8294;BME280;4185;41.506;24.938;2023-02-21T01:19:39;93834.59;;;1.71;66.65
8294;BME280;4185;41.506;24.938;2023-02-21T01:22:23;93825.59;;;1.65;67.09
8294;BME280;4185;41.506;24.938;2023-02-21T01:25:07;93819.91;;;1.63;67.40
8294;BME280;4185;41.506;24.938;2023-02-21T01:27:53;93821.72;;;1.66;67.21
8294;BME280;4185;41.506;24.938;2023-02-21T01:30:39;93818.63;;;1.68;66.97
8294;BME280;4185;41.506;24.938;2023-02-21T01:33:23;93820.75;;;1.60;67.00
8294;BME280;4185;41.506;24.938;2023-02-21T01:36:08;93816.63;;;1.56;67.60
8294;BME280;4185;41.506;24.938;2023-02-21T01:38:53;93803.75;;;1.51;67.56
8294;BME280;4185;41.506;24.938;2023-02-21T01:41:37;93790.63;;;1.56;67.34
8294;BME280;4185;41.506;24.938;2023-02-21T01:44:32;93793.22;;;1.60;66.16
8294;BME280;4185;41.506;24.938;2023-02-21T01:47:19;93792.66;;;1.52;67.14
8294;BME280;4185;41.506;24.938;2023-02-21T01:50:05;93789.47;;;1.41;67.89
8294;BME280;4185;41.506;24.938;2023-02-21T01:52:51;93795.59;;;1.42;68.13
8294;BME280;4185;41.506;24.938;2023-02-21T01:55:37;93796.16;;;1.49;67.63
8294;BME280;4185;41.506;24.938;2023-02-21T01:58:23;93787.59;;;1.54;67.89
8294;BME280;4185;41.506;24.938;2023-02-21T02:01:10;93790.72;;;1.53;67.73
8294;BME280;4185;41.506;24.938;2023-02-21T02:03:57;93796.16;;;1.49;67.93
8294;BME280;4185;41.506;24.938;2023-02-21T02:06:42;93784.81;;;1.29;68.90
8294;BME280;4185;41.506;24.938;2023-02-21T02:09:26;93772.25;;;1.26;68.96
8294;BME280;4185;41.506;24.938;2023-02-21T02:15:21;93754.56;;;1.16;69.63
8294;BME280;4185;41.506;24.938;2023-02-21T02:21:01;93754.47;;;1.03;69.53
8294;BME280;4185;41.506;24.938;2023-02-21T02:29:51;93752.44;;;1.23;69.02
8294;BME280;4185;41.506;24.938;2023-02-21T02:32:49;93749.44;;;1.21;69.18
8294;BME280;4185;41.506;24.938;2023-02-21T02:35:23;93742.66;;;1.17;69.58
8294;BME280;4185;41.506;24.938;2023-02-21T02:37:56;93742.78;;;0.97;69.82
8294;BME280;4185;41.506;24.938;2023-02-21T02:40:30;93743.13;;;0.99;69.75
8294;BME280;4185;41.506;24.938;2023-02-21T02:43:06;93744.75;;;0.93;70.17
8294;BME280;4185;41.506;24.938;2023-02-21T02:45:38;93756.91;;;0.98;69.97
8294;BME280;4185;41.506;24.938;2023-02-21T02:48:14;93753.03;;;0.99;69.63
8294;BME280;4185;41.506;24.938;2023-02-21T02:50:46;93758.06;;;0.97;69.97
8294;BME280;4185;41.506;24.938;2023-02-21T02:53:17;93758.91;;;0.94;69.95
8294;BME280;4185;41.506;24.938;2023-02-21T02:55:48;93746.94;;;0.82;70.52
8294;BME280;4185;41.506;24.938;2023-02-21T02:58:18;93753.38;;;0.85;71.13
8294;BME280;4185;41.506;24.938;2023-02-21T03:00:56;93747.28;;;0.84;71.25
8294;BME280;4185;41.506;24.938;2023-02-21T03:03:41;93740.34;;;0.87;71.79
8294;BME280;4185;41.506;24.938;2023-02-21T03:06:18;93742.16;;;0.90;71.49
8294;BME280;4185;41.506;24.938;2023-02-21T03:08:53;93736.84;;;0.74;72.04
8294;BME280;4185;41.506;24.938;2023-02-21T03:11:24;93747.53;;;0.74;72.03
8294;BME280;4185;41.506;24.938;2023-02-21T03:13:54;93737.75;;;0.67;72.31
8294;BME280;4185;41.506;24.938;2023-02-21T03:16:26;93737.06;;;0.63;72.28
8294;BME280;4185;41.506;24.938;2023-02-21T03:18:57;93736.31;;;0.63;72.33
8294;BME280;4185;41.506;24.938;2023-02-21T03:21:33;93719.09;;;0.48;72.14
8294;BME280;4185;41.506;24.938;2023-02-21T03:24:03;93736.91;;;0.70;72.01
8294;BME280;4185;41.506;24.938;2023-02-21T03:26:35;93729.38;;;0.81;71.55
8294;BME280;4185;41.506;24.938;2023-02-21T03:29:03;93722.81;;;0.86;71.71
8294;BME280;4185;41.506;24.938;2023-02-21T03:31:34;93721.63;;;0.87;71.55
8294;BME280;4185;41.506;24.938;2023-02-21T03:34:03;93724.31;;;0.87;72.05
8294;BME280;4185;41.506;24.938;2023-02-21T03:36:31;93727.66;;;0.91;71.51
8294;BME280;4185;41.506;24.938;2023-02-21T03:38:58;93728.31;;;0.79;71.93
8294;BME280;4185;41.506;24.938;2023-02-21T03:41:25;93731.97;;;0.85;72.16
8294;BME280;4185;41.506;24.938;2023-02-21T03:43:52;93732.75;;;0.85;71.47
8294;BME280;4185;41.506;24.938;2023-02-21T03:46:19;93710.19;;;0.70;71.73
8294;BME280;4185;41.506;24.938;2023-02-21T03:48:45;93722.97;;;0.79;71.98
8294;BME280;4185;41.506;24.938;2023-02-21T03:51:12;93721.44;;;0.78;72.07
8294;BME280;4185;41.506;24.938;2023-02-21T03:53:40;93731.81;;;0.76;72.58
8294;BME280;4185;41.506;24.938;2023-02-21T03:56:07;93728.47;;;0.72;72.85
8294;BME280;4185;41.506;24.938;2023-02-21T03:58:34;93728.63;;;0.65;72.43
8294;BME280;4185;41.506;24.938;2023-02-21T04:01:01;93728.56;;;0.68;73.05
8294;BME280;4185;41.506;24.938;2023-02-21T04:03:28;93726.31;;;0.67;72.49
8294;BME280;4185;41.506;24.938;2023-02-21T04:05:54;93715.53;;;0.70;73.04
8294;BME280;4185;41.506;24.938;2023-02-21T04:08:21;93716.28;;;0.71;72.93
8294;BME280;4185;41.506;24.938;2023-02-21T04:10:49;93729.66;;;0.71;72.70
8294;BME280;4185;41.506;24.938;2023-02-21T04:13:16;93727.13;;;0.64;73.16
8294;BME280;4185;41.506;24.938;2023-02-21T04:15:44;93730.72;;;0.57;72.84
8294;BME280;4185;41.506;24.938;2023-02-21T04:18:11;93724.97;;;0.59;73.00
8294;BME280;4185;41.506;24.938;2023-02-21T04:20:37;93723.03;;;0.43;73.89
8294;BME280;4185;41.506;24.938;2023-02-21T04:23:04;93722.94;;;0.47;74.08
8294;BME280;4185;41.506;24.938;2023-02-21T04:25:31;93723.53;;;0.54;73.73
8294;BME280;4185;41.506;24.938;2023-02-21T04:27:59;93719.78;;;0.52;73.75
8294;BME280;4185;41.506;24.938;2023-02-21T04:30:26;93720.94;;;0.51;73.58
8294;BME280;4185;41.506;24.938;2023-02-21T04:32:52;93711.50;;;0.46;74.08
8294;BME280;4185;41.506;24.938;2023-02-21T04:35:19;93710.00;;;0.45;74.11
8294;BME280;4185;41.506;24.938;2023-02-21T04:37:46;93716.41;;;0.48;74.62
8294;BME280;4185;41.506;24.938;2023-02-21T04:40:13;93713.00;;;0.47;74.41
8294;BME280;4185;41.506;24.938;2023-02-21T04:42:40;93712.41;;;0.40;74.78
8294;BME280;4185;41.506;24.938;2023-02-21T04:45:08;93707.06;;;0.40;74.79
8294;BME280;4185;41.506;24.938;2023-02-21T04:47:35;93711.66;;;0.39;74.58
8294;BME280;4185;41.506;24.938;2023-02-21T04:50:02;93710.72;;;0.46;75.33
8294;BME280;4185;41.506;24.938;2023-02-21T04:52:29;93703.59;;;0.59;74.55
8294;BME280;4185;41.506;24.938;2023-02-21T04:54:57;93700.41;;;0.64;74.03
8294;BME280;4185;41.506;24.938;2023-02-21T04:57:24;93695.31;;;0.69;73.31
8294;BME280;4185;41.506;24.938;2023-02-21T04:59:55;93695.47;;;0.78;73.20
8294;BME280;4185;41.506;24.938;2023-02-21T05:02:23;93705.00;;;0.79;73.04
8294;BME280;4185;41.506;24.938;2023-02-21T05:04:50;93707.59;;;0.83;73.15
8294;BME280;4185;41.506;24.938;2023-02-21T05:07:19;93702.91;;;0.87;73.20
8294;BME280;4185;41.506;24.938;2023-02-21T05:09:45;93700.75;;;0.82;72.93
8294;BME280;4185;41.506;24.938;2023-02-21T05:12:12;93695.13;;;0.76;73.21
8294;BME280;4185;41.506;24.938;2023-02-21T05:14:39;93700.91;;;0.75;73.58
8294;BME280;4185;41.506;24.938;2023-02-21T05:17:06;93700.97;;;0.71;73.89
8294;BME280;4185;41.506;24.938;2023-02-21T05:19:35;93703.56;;;0.75;74.02
8294;BME280;4185;41.506;24.938;2023-02-21T05:22:02;93701.25;;;0.61;73.98
8294;BME280;4185;41.506;24.938;2023-02-21T05:24:31;93708.78;;;0.66;73.82
8294;BME280;4185;41.506;24.938;2023-02-21T05:26:58;93713.94;;;0.73;73.73
8294;BME280;4185;41.506;24.938;2023-02-21T05:29:25;93715.28;;;0.81;73.50
8294;BME280;4185;41.506;24.938;2023-02-21T05:31:52;93719.28;;;0.73;74.33
8294;BME280;4185;41.506;24.938;2023-02-21T05:34:19;93724.03;;;0.65;73.62
8294;BME280;4185;41.506;24.938;2023-02-21T05:36:47;93709.75;;;0.56;74.71
8294;BME280;4185;41.506;24.938;2023-02-21T05:39:14;93719.09;;;0.48;74.98
8294;BME280;4185;41.506;24.938;2023-02-21T05:41:46;93724.28;;;0.55;75.03
8294;BME280;4185;41.506;24.938;2023-02-21T05:44:12;93726.47;;;0.60;75.01
8294;BME280;4185;41.506;24.938;2023-02-21T05:46:40;93724.19;;;0.58;74.94
8294;BME280;4185;41.506;24.938;2023-02-21T05:49:08;93722.88;;;0.50;75.61
8294;BME280;4185;41.506;24.938;2023-02-21T05:51:35;93728.78;;;0.58;75.76
8294;BME280;4185;41.506;24.938;2023-02-21T05:54:06;93724.47;;;0.64;75.44
8294;BME280;4185;41.506;24.938;2023-02-21T05:56:37;93727.47;;;0.66;75.32
8294;BME280;4185;41.506;24.938;2023-02-21T05:59:05;93728.63;;;0.65;75.01
8294;BME280;4185;41.506;24.938;2023-02-21T06:01:31;93728.47;;;0.72;75.46
8294;BME280;4185;41.506;24.938;2023-02-21T06:03:58;93734.34;;;0.83;74.91
8294;BME280;4185;41.506;24.938;2023-02-21T06:06:25;93731.81;;;0.92;74.95
8294;BME280;4185;41.506;24.938;2023-02-21T06:08:52;93739.34;;;0.97;74.19
8294;BME280;4185;41.506;24.938;2023-02-21T06:11:23;93734.50;;;1.08;73.39
8294;BME280;4185;41.506;24.938;2023-02-21T06:13:53;93732.63;;;1.21;73.80
8294;BME280;4185;41.506;24.938;2023-02-21T06:16:21;93730.94;;;1.27;73.45
8294;BME280;4185;41.506;24.938;2023-02-21T06:18:49;93731.63;;;1.31;74.06
8294;BME280;4185;41.506;24.938;2023-02-21T06:21:17;93736.22;;;1.31;74.49
8294;BME280;4185;41.506;24.938;2023-02-21T06:23:44;93737.41;;;1.30;73.80
8294;BME280;4185;41.506;24.938;2023-02-21T06:26:11;93725.75;;;1.36;73.69
8294;BME280;4185;41.506;24.938;2023-02-21T06:28:39;93729.25;;;1.49;72.94
8294;BME280;4185;41.506;24.938;2023-02-21T06:31:06;93724.88;;;1.55;72.86
8294;BME280;4185;41.506;24.938;2023-02-21T06:33:33;93729.44;;;1.71;72.21
8294;BME280;4185;41.506;24.938;2023-02-21T06:36:03;93731.09;;;1.81;71.61
8294;BME280;4185;41.506;24.938;2023-02-21T06:38:30;93730.16;;;1.87;70.97
8294;BME280;4185;41.506;24.938;2023-02-21T06:40:57;93741.19;;;1.89;71.14
8294;BME280;4185;41.506;24.938;2023-02-21T06:43:24;93739.06;;;1.97;71.53
8294;BME280;4185;41.506;24.938;2023-02-21T06:45:53;93736.09;;;2.07;71.13
8294;BME280;4185;41.506;24.938;2023-02-21T06:48:19;93745.41;;;2.15;70.90
8294;BME280;4185;41.506;24.938;2023-02-21T06:50:46;93751.78;;;2.21;70.99
8294;BME280;4185;41.506;24.938;2023-02-21T06:53:13;93755.09;;;2.25;70.84
8294;BME280;4185;41.506;24.938;2023-02-21T06:55:40;93749.84;;;2.34;70.67
8294;BME280;4185;41.506;24.938;2023-02-21T06:58:07;93753.44;;;2.57;69.80
8294;BME280;4185;41.506;24.938;2023-02-21T07:00:35;93742.81;;;2.78;69.72
8294;BME280;4185;41.506;24.938;2023-02-21T07:03:03;93737.97;;;2.98;68.57
8294;BME280;4185;41.506;24.938;2023-02-21T07:05:30;93743.75;;;3.09;67.50
8294;BME280;4185;41.506;24.938;2023-02-21T07:07:59;93740.09;;;3.16;67.82
8294;BME280;4185;41.506;24.938;2023-02-21T07:10:26;93733.75;;;3.22;68.02
8294;BME280;4185;41.506;24.938;2023-02-21T07:12:52;93731.94;;;3.19;67.42
8294;BME280;4185;41.506;24.938;2023-02-21T07:15:19;93731.06;;;3.10;67.64
8294;BME280;4185;41.506;24.938;2023-02-21T07:17:46;93728.94;;;3.05;68.21
8294;BME280;4185;41.506;24.938;2023-02-21T07:20:14;93723.56;;;3.05;67.87
8294;BME280;4185;41.506;24.938;2023-02-21T07:22:41;93729.81;;;3.02;66.93
8294;BME280;4185;41.506;24.938;2023-02-21T07:25:13;93732.81;;;3.04;66.34
8294;BME280;4185;41.506;24.938;2023-02-21T07:27:40;93727.78;;;3.06;66.04
8294;BME280;4185;41.506;24.938;2023-02-21T07:30:07;93725.72;;;3.10;65.76
8294;BME280;4185;41.506;24.938;2023-02-21T07:32:34;93720.22;;;3.13;65.13
8294;BME280;4185;41.506;24.938;2023-02-21T07:35:01;93726.13;;;3.21;65.10
8294;BME280;4185;41.506;24.938;2023-02-21T07:37:29;93725.03;;;3.31;65.53
8294;BME280;4185;41.506;24.938;2023-02-21T07:39:56;93728.53;;;3.53;64.99
8294;BME280;4185;41.506;24.938;2023-02-21T07:42:23;93735.22;;;3.70;64.96
8294;BME280;4185;41.506;24.938;2023-02-21T07:44:54;93740.41;;;3.86;64.37
8294;BME280;4185;41.506;24.938;2023-02-21T07:47:21;93719.59;;;3.99;63.88
8294;BME280;4185;41.506;24.938;2023-02-21T07:49:48;93728.50;;;4.09;63.22
8294;BME280;4185;41.506;24.938;2023-02-21T07:52:15;93731.41;;;4.23;63.36
8294;BME280;4185;41.506;24.938;2023-02-21T07:54:43;93727.47;;;4.37;62.82
8294;BME280;4185;41.506;24.938;2023-02-21T07:57:10;93710.75;;;4.42;62.48
8294;BME280;4185;41.506;24.938;2023-02-21T07:59:37;93720.56;;;4.57;61.93
8294;BME280;4185;41.506;24.938;2023-02-21T08:02:04;93717.66;;;4.73;62.04
8294;BME280;4185;41.506;24.938;2023-02-21T08:04:31;93712.91;;;4.86;60.46
8294;BME280;4185;41.506;24.938;2023-02-21T08:06:58;93718.59;;;4.97;60.35
8294;BME280;4185;41.506;24.938;2023-02-21T08:09:25;93711.19;;;5.11;59.70
8294;BME280;4185;41.506;24.938;2023-02-21T08:11:53;93698.03;;;5.22;58.56
8294;BME280;4185;41.506;24.938;2023-02-21T08:14:20;93693.00;;;5.33;58.75
8294;BME280;4185;41.506;24.938;2023-02-21T08:16:47;93694.03;;;5.44;58.66
8294;BME280;4185;41.506;24.938;2023-02-21T08:19:13;93683.88;;;5.57;58.23
8294;BME280;4185;41.506;24.938;2023-02-21T08:21:43;93683.13;;;5.75;56.53
8294;BME280;4185;41.506;24.938;2023-02-21T08:24:11;93685.53;;;5.91;55.71
8294;BME280;4185;41.506;24.938;2023-02-21T08:26:38;93683.72;;;6.06;55.19
8294;BME280;4185;41.506;24.938;2023-02-21T08:29:07;93681.59;;;6.19;54.50
8294;BME280;4185;41.506;24.938;2023-02-21T08:31:34;93686.06;;;6.31;54.28
8294;BME280;4185;41.506;24.938;2023-02-21T08:34:01;93667.16;;;6.49;53.32
8294;BME280;4185;41.506;24.938;2023-02-21T08:36:30;93667.06;;;6.67;52.43
8294;BME280;4185;41.506;24.938;2023-02-21T08:38:57;93668.66;;;6.83;52.71
8294;BME280;4185;41.506;24.938;2023-02-21T08:41:24;93658.06;;;7.03;51.80
8294;BME280;4185;41.506;24.938;2023-02-21T08:43:51;93654.47;;;7.20;49.72
8294;BME280;4185;41.506;24.938;2023-02-21T08:46:19;93649.28;;;7.40;48.61
8294;BME280;4185;41.506;24.938;2023-02-21T08:48:46;93645.22;;;7.60;46.36
8294;BME280;4185;41.506;24.938;2023-02-21T08:51:12;93644.16;;;7.81;45.85
8294;BME280;4185;41.506;24.938;2023-02-21T08:53:39;93633.63;;;7.97;46.42
8294;BME280;4185;41.506;24.938;2023-02-21T08:56:06;93623.75;;;8.09;45.79
8294;BME280;4185;41.506;24.938;2023-02-21T08:58:33;93624.03;;;8.25;44.31
8294;BME280;4185;41.506;24.938;2023-02-21T09:00:59;93620.03;;;8.50;43.63
8294;BME280;4185;41.506;24.938;2023-02-21T09:03:28;93621.78;;;8.68;43.59
8294;BME280;4185;41.506;24.938;2023-02-21T09:05:54;93618.19;;;8.76;43.77
8294;BME280;4185;41.506;24.938;2023-02-21T09:08:21;93614.91;;;8.87;43.37
8294;BME280;4185;41.506;24.938;2023-02-21T09:10:51;93608.22;;;9.02;43.06
8294;BME280;4185;41.506;24.938;2023-02-21T09:13:17;93607.56;;;9.27;42.65
8294;BME280;4185;41.506;24.938;2023-02-21T09:15:44;93601.41;;;9.47;42.22
8294;BME280;4185;41.506;24.938;2023-02-21T09:18:11;93611.56;;;9.72;42.43
8294;BME280;4185;41.506;24.938;2023-02-21T09:20:39;93611.03;;;9.94;42.07
8294;BME280;4185;41.506;24.938;2023-02-21T09:23:07;93592.41;;;10.07;41.81
8294;BME280;4185;41.506;24.938;2023-02-21T09:25:33;93600.25;;;10.25;41.32
8294;BME280;4185;41.506;24.938;2023-02-21T09:28:00;93598.47;;;10.47;39.83
8294;BME280;4185;41.506;24.938;2023-02-21T09:30:27;93586.78;;;10.72;39.44
8294;BME280;4185;41.506;24.938;2023-02-21T09:32:54;93589.63;;;10.89;39.69
8294;BME280;4185;41.506;24.938;2023-02-21T09:35:21;93578.59;;;11.03;39.51
8294;BME280;4185;41.506;24.938;2023-02-21T09:37:50;93572.50;;;11.25;39.70
8294;BME280;4185;41.506;24.938;2023-02-21T09:40:24;93576.56;;;11.46;39.07
8294;BME280;4185;41.506;24.938;2023-02-21T09:42:56;93561.31;;;11.65;38.68
8294;BME280;4185;41.506;24.938;2023-02-21T09:45:24;93568.28;;;11.83;38.45
8294;BME280;4185;41.506;24.938;2023-02-21T09:47:53;93561.66;;;12.00;39.11
8294;BME280;4185;41.506;24.938;2023-02-21T09:50:26;93549.53;;;12.18;37.30
8294;BME280;4185;41.506;24.938;2023-02-21T09:52:57;93554.03;;;12.38;37.48
8294;BME280;4185;41.506;24.938;2023-02-21T09:55:28;93542.59;;;12.56;37.26
8294;BME280;4185;41.506;24.938;2023-02-21T09:57:55;93538.13;;;12.75;37.17
8294;BME280;4185;41.506;24.938;2023-02-21T10:00:24;93526.69;;;12.93;36.34
8294;BME280;4185;41.506;24.938;2023-02-21T10:02:58;93522.22;;;13.12;35.92
8294;BME280;4185;41.506;24.938;2023-02-21T10:05:37;93522.41;;;13.30;35.95
8294;BME280;4185;41.506;24.938;2023-02-21T10:08:13;93501.00;;;13.40;35.90
8294;BME280;4185;41.506;24.938;2023-02-21T10:10:44;93504.13;;;13.61;35.62
8294;BME280;4185;41.506;24.938;2023-02-21T10:13:24;93497.34;;;13.78;35.51
8294;BME280;4185;41.506;24.938;2023-02-21T10:15:54;93499.69;;;13.98;35.33
8294;BME280;4185;41.506;24.938;2023-02-21T10:18:31;93495.06;;;14.17;35.81
8294;BME280;4185;41.506;24.938;2023-02-21T10:21:01;93488.72;;;14.39;34.78
8294;BME280;4185;41.506;24.938;2023-02-21T10:23:36;93482.38;;;14.55;34.15
8294;BME280;4185;41.506;24.938;2023-02-21T10:26:09;93467.34;;;14.67;34.31
8294;BME280;4185;41.506;24.938;2023-02-21T10:28:37;93474.81;;;14.91;33.92
8294;BME280;4185;41.506;24.938;2023-02-21T10:31:10;93466.88;;;15.11;34.15
8294;BME280;4185;41.506;24.938;2023-02-21T10:33:38;93446.38;;;15.18;33.94
8294;BME280;4185;41.506;24.938;2023-02-21T10:36:12;93465.88;;;15.51;33.45
8294;BME280;4185;41.506;24.938;2023-02-21T10:38:49;93451.44;;;15.69;33.19
8294;BME280;4185;41.506;24.938;2023-02-21T10:41:19;93446.91;;;15.91;33.20
8294;BME280;4185;41.506;24.938;2023-02-21T10:43:49;93438.97;;;16.06;32.17
8294;BME280;4185;41.506;24.938;2023-02-21T10:46:22;93431.00;;;16.21;31.97
8294;BME280;4185;41.506;24.938;2023-02-21T10:48:54;93427.56;;;16.33;31.65
8294;BME280;4185;41.506;24.938;2023-02-21T10:51:29;93428.22;;;16.52;31.59
8294;BME280;4185;41.506;24.938;2023-02-21T10:54:18;93417.91;;;16.71;31.38
8294;BME280;4185;41.506;24.938;2023-02-21T10:56:46;93417.28;;;16.91;30.97
8294;BME280;4185;41.506;24.938;2023-02-21T10:59:20;93409.69;;;17.11;30.64
8294;BME280;4185;41.506;24.938;2023-02-21T11:01:48;93413.56;;;17.28;30.36
8294;BME280;4185;41.506;24.938;2023-02-21T11:04:26;93406.78;;;17.42;29.86
8294;BME280;4185;41.506;24.938;2023-02-21T11:06:54;93400.53;;;17.55;29.37
8294;BME280;4185;41.506;24.938;2023-02-21T11:09:37;93391.06;;;17.76;28.33
8294;BME280;4185;41.506;24.938;2023-02-21T11:12:18;93395.72;;;18.02;29.32
8294;BME280;4185;41.506;24.938;2023-02-21T11:15:16;93384.19;;;18.24;27.73
8294;BME280;4185;41.506;24.938;2023-02-21T11:17:44;93374.78;;;18.40;25.72
8294;BME280;4185;41.506;24.938;2023-02-21T11:20:17;93371.09;;;18.58;26.41
8294;BME280;4185;41.506;24.938;2023-02-21T11:22:46;93360.72;;;18.72;26.24
8294;BME280;4185;41.506;24.938;2023-02-21T11:25:22;93347.19;;;18.81;26.21
8294;BME280;4185;41.506;24.938;2023-02-21T11:28:02;93358.69;;;19.00;25.84
8294;BME280;4185;41.506;24.938;2023-02-21T11:30:30;93356.19;;;19.17;25.64
8294;BME280;4185;41.506;24.938;2023-02-21T11:32:59;93352.22;;;19.33;24.98
8294;BME280;4185;41.506;24.938;2023-02-21T11:35:28;93353.00;;;19.49;25.09
8294;BME280;4185;41.506;24.938;2023-02-21T11:37:57;93347.94;;;19.68;25.00
8294;BME280;4185;41.506;24.938;2023-02-21T11:40:33;93341.16;;;19.84;24.59
8294;BME280;4185;41.506;24.938;2023-02-21T11:43:19;93336.94;;;20.06;24.69
8294;BME280;4185;41.506;24.938;2023-02-21T11:46:13;93330.88;;;20.00;24.45
8294;BME280;4185;41.506;24.938;2023-02-21T11:48:49;93325.56;;;20.02;24.91
8294;BME280;4185;41.506;24.938;2023-02-21T11:51:31;93320.81;;;20.17;25.41
8294;BME280;4185;41.506;24.938;2023-02-21T11:54:02;93325.56;;;20.32;25.08
8294;BME280;4185;41.506;24.938;2023-02-21T11:56:46;93323.53;;;20.47;24.31
8294;BME280;4185;41.506;24.938;2023-02-21T11:59:28;93324.44;;;20.50;24.42
8294;BME280;4185;41.506;24.938;2023-02-21T12:05:05;93306.19;;;20.77;23.98
8294;BME280;4185;41.506;24.938;2023-02-21T12:07:41;93316.50;;;20.77;23.79
8294;BME280;4185;41.506;24.938;2023-02-21T12:10:26;93301.03;;;20.74;24.09
8294;BME280;4185;41.506;24.938;2023-02-21T12:13:01;93303.78;;;20.74;24.11
8294;BME280;4185;41.506;24.938;2023-02-21T12:15:40;93307.81;;;20.88;23.71
8294;BME280;4185;41.506;24.938;2023-02-21T12:18:24;93297.50;;;21.03;23.79
8294;BME280;4185;41.506;24.938;2023-02-21T12:21:18;93297.63;;;21.13;23.42
8294;BME280;4185;41.506;24.938;2023-02-21T12:23:54;93292.66;;;21.11;23.29
8294;BME280;4185;41.506;24.938;2023-02-21T12:26:42;93288.38;;;21.25;23.52
8294;BME280;4185;41.506;24.938;2023-02-21T12:29:23;93281.81;;;21.45;23.28
8294;BME280;4185;41.506;24.938;2023-02-21T12:32:14;93294.88;;;21.52;23.10
8294;BME280;4185;41.506;24.938;2023-02-21T12:34:58;93278.78;;;21.58;22.72
8294;BME280;4185;41.506;24.938;2023-02-21T12:37:34;93284.66;;;21.62;22.49
8294;BME280;4185;41.506;24.938;2023-02-21T12:40:18;93286.09;;;21.71;22.59
8294;BME280;4185;41.506;24.938;2023-02-21T12:43:01;93293.38;;;21.84;22.21
8294;BME280;4185;41.506;24.938;2023-02-21T12:45:43;93288.22;;;21.88;22.71
8294;BME280;4185;41.506;24.938;2023-02-21T12:48:18;93292.19;;;22.02;22.44
8294;BME280;4185;41.506;24.938;2023-02-21T12:50:50;93287.19;;;22.25;22.28
8294;BME280;4185;41.506;24.938;2023-02-21T12:53:21;93280.91;;;22.24;21.99
8294;BME280;4185;41.506;24.938;2023-02-21T12:55:54;93273.53;;;22.27;22.15
8294;BME280;4185;41.506;24.938;2023-02-21T12:58:27;93280.34;;;22.26;22.43
8294;BME280;4185;41.506;24.938;2023-02-21T13:01:00;93280.03;;;22.22;22.16
8294;BME280;4185;41.506;24.938;2023-02-21T13:03:41;93280.91;;;22.24;22.58
8294;BME280;4185;41.506;24.938;2023-02-21T13:06:16;93271.91;;;22.24;22.47
8294;BME280;4185;41.506;24.938;2023-02-21T13:08:52;93272.69;;;22.17;22.45
8294;BME280;4185;41.506;24.938;2023-02-21T13:11:26;93271.38;;;22.18;22.52
8294;BME280;4185;41.506;24.938;2023-02-21T13:13:57;93266.00;;;22.20;22.47
8294;BME280;4185;41.506;24.938;2023-02-21T13:16:26;93273.88;;;22.48;22.44
8294;BME280;4185;41.506;24.938;2023-02-21T13:18:57;93273.09;;;22.55;22.53
8294;BME280;4185;41.506;24.938;2023-02-21T13:21:35;93266.88;;;22.47;22.42
8294;BME280;4185;41.506;24.938;2023-02-21T13:24:38;93269.97;;;22.51;22.36
8294;BME280;4185;41.506;24.938;2023-02-21T13:27:29;93269.19;;;22.58;22.76
8294;BME280;4185;41.506;24.938;2023-02-21T13:30:03;93268.38;;;22.65;22.90
8294;BME280;4185;41.506;24.938;2023-02-21T13:32:38;93271.94;;;22.58;22.75
8294;BME280;4185;41.506;24.938;2023-02-21T13:35:08;93276.16;;;22.42;22.91
8294;BME280;4185;41.506;24.938;2023-02-21T13:37:43;93270.53;;;22.32;23.10
8294;BME280;4185;41.506;24.938;2023-02-21T13:40:19;93271.41;;;22.35;23.07
8294;BME280;4185;41.506;24.938;2023-02-21T13:42:58;93273.78;;;22.38;23.11
8294;BME280;4185;41.506;24.938;2023-02-21T13:45:27;93272.06;;;22.43;23.27
8294;BME280;4185;41.506;24.938;2023-02-21T13:48:23;93275.25;;;22.39;23.28
8294;BME280;4185;41.506;24.938;2023-02-21T13:50:52;93260.13;;;22.40;23.38
8294;BME280;4185;41.506;24.938;2023-02-21T13:53:21;93275.91;;;22.47;23.52
8294;BME280;4185;41.506;24.938;2023-02-21T13:58:51;93270.78;;;23.12;23.17
8294;BME280;4185;41.506;24.938;2023-02-21T14:01:21;93270.25;;;23.57;22.87
8294;BME280;4185;41.506;24.938;2023-02-21T14:03:51;93267.69;;;24.51;21.99
8294;BME280;4185;41.506;24.938;2023-02-21T14:06:28;93271.72;;;26.64;20.40